sensor_id;sensor_type;location;lat;lon;timestamp;P1;durP1;ratioP1;P2;durP2;ratioP2
781;SDS011;374;52.568;13.402;2024-02-16T00:01:01;22.50;;;19.33;;
781;SDS011;374;52.568;13.402;2024-02-16T00:03:27;27.53;;;19.83;;
781;SDS011;374;52.568;13.402;2024-02-16T00:05:53;29.43;;;18.80;;
781;SDS011;374;52.568;13.402;2024-02-16T00:08:19;24.90;;;20.13;;
781;SDS011;374;52.568;13.402;2024-02-16T00:10:48;22.83;;;19.40;;
781;SDS011;374;52.568;13.402;2024-02-16T00:13:13;24.67;;;19.17;;
781;SDS011;374;52.568;13.402;2024-02-16T00:15:39;26.03;;;19.77;;
781;SDS011;374;52.568;13.402;2024-02-16T00:18:05;28.77;;;20.20;;
781;SDS011;374;52.568;13.402;2024-02-16T00:20:31;28.70;;;20.27;;
781;SDS011;374;52.568;13.402;2024-02-16T00:22:57;25.30;;;19.67;;
781;SDS011;374;52.568;13.402;2024-02-16T00:25:23;30.27;;;21.27;;
781;SDS011;374;52.568;13.402;2024-02-16T00:27:49;29.77;;;20.43;;
781;SDS011;374;52.568;13.402;2024-02-16T00:30:18;32.03;;;20.70;;
781;SDS011;374;52.568;13.402;2024-02-16T00:32:43;34.70;;;25.37;;
781;SDS011;374;52.568;13.402;2024-02-16T00:35:10;34.67;;;23.57;;
781;SDS011;374;52.568;13.402;2024-02-16T00:37:36;37.43;;;25.60;;
781;SDS011;374;52.568;13.402;2024-02-16T00:40:03;41.00;;;26.53;;
781;SDS011;374;52.568;13.402;2024-02-16T00:42:29;38.20;;;24.50;;
781;SDS011;374;52.568;13.402;2024-02-16T00:44:56;46.10;;;27.40;;
781;SDS011;374;52.568;13.402;2024-02-16T00:47:22;39.53;;;25.53;;
781;SDS011;374;52.568;13.402;2024-02-16T00:49:48;42.70;;;27.10;;
781;SDS011;374;52.568;13.402;2024-02-16T00:52:17;43.20;;;26.90;;
781;SDS011;374;52.568;13.402;2024-02-16T00:54:42;43.93;;;25.60;;
781;SDS011;374;52.568;13.402;2024-02-16T00:57:08;43.90;;;27.57;;
781;SDS011;374;52.568;13.402;2024-02-16T00:59:33;39.50;;;27.47;;
781;SDS011;374;52.568;13.402;2024-02-16T01:01:58;45.50;;;28.13;;
781;SDS011;374;52.568;13.402;2024-02-16T01:04:24;48.07;;;28.67;;
781;SDS011;374;52.568;13.402;2024-02-16T01:06:49;46.00;;;29.07;;
781;SDS011;374;52.568;13.402;2024-02-16T01:09:15;48.13;;;29.83;;
781;SDS011;374;52.568;13.402;2024-02-16T01:11:41;48.00;;;30.80;;
781;SDS011;374;52.568;13.402;2024-02-16T01:14:07;42.20;;;29.17;;
781;SDS011;374;52.568;13.402;2024-02-16T01:16:32;52.03;;;31.03;;
781;SDS011;374;52.568;13.402;2024-02-16T01:18:58;48.20;;;29.60;;
781;SDS011;374;52.568;13.402;2024-02-16T01:21:23;54.37;;;32.30;;
781;SDS011;374;52.568;13.402;2024-02-16T01:23:49;47.27;;;29.47;;
781;SDS011;374;52.568;13.402;2024-02-16T01:26:14;49.80;;;31.10;;
781;SDS011;374;52.568;13.402;2024-02-16T01:28:40;53.47;;;31.20;;
781;SDS011;374;52.568;13.402;2024-02-16T01:31:05;48.17;;;30.07;;
781;SDS011;374;52.568;13.402;2024-02-16T01:33:31;63.20;;;33.73;;
781;SDS011;374;52.568;13.402;2024-02-16T01:35:59;51.17;;;29.20;;
781;SDS011;374;52.568;13.402;2024-02-16T01:38:25;50.07;;;29.77;;
781;SDS011;374;52.568;13.402;2024-02-16T01:40:50;50.17;;;32.70;;
781;SDS011;374;52.568;13.402;2024-02-16T01:43:19;53.17;;;33.70;;
781;SDS011;374;52.568;13.402;2024-02-16T01:45:45;47.27;;;29.90;;
781;SDS011;374;52.568;13.402;2024-02-16T01:48:11;52.37;;;29.80;;
781;SDS011;374;52.568;13.402;2024-02-16T01:50:38;47.13;;;30.27;;
781;SDS011;374;52.568;13.402;2024-02-16T01:53:04;44.43;;;29.67;;
781;SDS011;374;52.568;13.402;2024-02-16T01:55:29;42.67;;;29.60;;
781;SDS011;374;52.568;13.402;2024-02-16T01:57:55;41.77;;;28.70;;
781;SDS011;374;52.568;13.402;2024-02-16T02:00:23;52.53;;;30.03;;
781;SDS011;374;52.568;13.402;2024-02-16T02:02:52;46.57;;;31.57;;
781;SDS011;374;52.568;13.402;2024-02-16T02:05:17;49.70;;;31.53;;
781;SDS011;374;52.568;13.402;2024-02-16T02:07:43;45.67;;;29.00;;
781;SDS011;374;52.568;13.402;2024-02-16T02:10:09;46.23;;;31.27;;
781;SDS011;374;52.568;13.402;2024-02-16T02:12:37;49.83;;;31.37;;
781;SDS011;374;52.568;13.402;2024-02-16T02:15:07;47.43;;;31.60;;
781;SDS011;374;52.568;13.402;2024-02-16T02:17:33;53.40;;;33.23;;
781;SDS011;374;52.568;13.402;2024-02-16T02:19:59;47.40;;;33.10;;
781;SDS011;374;52.568;13.402;2024-02-16T02:22:25;50.47;;;32.50;;
781;SDS011;374;52.568;13.402;2024-02-16T02:24:52;49.00;;;32.73;;
781;SDS011;374;52.568;13.402;2024-02-16T02:27:20;52.17;;;33.00;;
781;SDS011;374;52.568;13.402;2024-02-16T02:29:46;52.53;;;32.53;;
781;SDS011;374;52.568;13.402;2024-02-16T02:32:12;59.10;;;33.60;;
781;SDS011;374;52.568;13.402;2024-02-16T02:34:38;51.90;;;34.60;;
781;SDS011;374;52.568;13.402;2024-02-16T02:37:04;56.47;;;34.80;;
781;SDS011;374;52.568;13.402;2024-02-16T02:39:30;50.77;;;32.83;;
781;SDS011;374;52.568;13.402;2024-02-16T02:41:56;54.60;;;35.37;;
781;SDS011;374;52.568;13.402;2024-02-16T02:44:22;55.13;;;36.03;;
781;SDS011;374;52.568;13.402;2024-02-16T02:46:48;63.60;;;38.20;;
781;SDS011;374;52.568;13.402;2024-02-16T02:49:14;56.17;;;35.90;;
781;SDS011;374;52.568;13.402;2024-02-16T02:51:42;56.40;;;34.23;;
781;SDS011;374;52.568;13.402;2024-02-16T02:54:08;54.97;;;36.67;;
781;SDS011;374;52.568;13.402;2024-02-16T02:56:33;55.13;;;33.43;;
781;SDS011;374;52.568;13.402;2024-02-16T02:58:59;56.30;;;36.20;;
781;SDS011;374;52.568;13.402;2024-02-16T03:01:24;58.53;;;37.30;;
781;SDS011;374;52.568;13.402;2024-02-16T03:03:50;58.37;;;37.00;;
781;SDS011;374;52.568;13.402;2024-02-16T03:06:19;57.13;;;36.10;;
781;SDS011;374;52.568;13.402;2024-02-16T03:08:45;59.03;;;34.80;;
781;SDS011;374;52.568;13.402;2024-02-16T03:11:11;57.33;;;35.90;;
781;SDS011;374;52.568;13.402;2024-02-16T03:13:39;52.43;;;35.37;;
781;SDS011;374;52.568;13.402;2024-02-16T03:16:05;52.93;;;34.13;;
781;SDS011;374;52.568;13.402;2024-02-16T03:18:33;57.57;;;33.97;;
781;SDS011;374;52.568;13.402;2024-02-16T03:20:59;53.30;;;34.83;;
781;SDS011;374;52.568;13.402;2024-02-16T03:23:25;52.07;;;35.57;;
781;SDS011;374;52.568;13.402;2024-02-16T03:25:50;52.23;;;35.17;;
781;SDS011;374;52.568;13.402;2024-02-16T03:28:16;57.73;;;34.23;;
781;SDS011;374;52.568;13.402;2024-02-16T03:30:42;50.73;;;36.90;;
781;SDS011;374;52.568;13.402;2024-02-16T03:33:08;60.63;;;32.70;;
781;SDS011;374;52.568;13.402;2024-02-16T03:35:35;52.03;;;34.77;;
781;SDS011;374;52.568;13.402;2024-02-16T03:38:01;51.63;;;34.90;;
781;SDS011;374;52.568;13.402;2024-02-16T03:40:28;52.20;;;34.43;;
781;SDS011;374;52.568;13.402;2024-02-16T03:42:53;53.73;;;35.77;;
781;SDS011;374;52.568;13.402;2024-02-16T03:45:19;47.20;;;34.03;;
781;SDS011;374;52.568;13.402;2024-02-16T03:47:45;51.03;;;33.20;;
781;SDS011;374;52.568;13.402;2024-02-16T03:50:13;43.50;;;31.30;;
781;SDS011;374;52.568;13.402;2024-02-16T03:52:39;48.90;;;33.80;;
781;SDS011;374;52.568;13.402;2024-02-16T03:55:05;47.90;;;33.77;;
781;SDS011;374;52.568;13.402;2024-02-16T03:57:31;54.40;;;33.57;;
781;SDS011;374;52.568;13.402;2024-02-16T03:59:56;50.03;;;33.37;;
781;SDS011;374;52.568;13.402;2024-02-16T04:02:22;48.43;;;32.80;;
781;SDS011;374;52.568;13.402;2024-02-16T04:04:47;44.83;;;31.03;;
781;SDS011;374;52.568;13.402;2024-02-16T04:07:13;50.40;;;30.23;;
781;SDS011;374;52.568;13.402;2024-02-16T04:09:39;46.77;;;31.40;;
781;SDS011;374;52.568;13.402;2024-02-16T04:12:05;46.20;;;31.20;;
781;SDS011;374;52.568;13.402;2024-02-16T04:14:30;45.10;;;30.70;;
781;SDS011;374;52.568;13.402;2024-02-16T04:16:57;44.53;;;30.93;;
781;SDS011;374;52.568;13.402;2024-02-16T04:19:25;45.20;;;30.80;;
781;SDS011;374;52.568;13.402;2024-02-16T04:21:51;51.20;;;32.70;;
781;SDS011;374;52.568;13.402;2024-02-16T04:24:17;42.30;;;30.77;;
781;SDS011;374;52.568;13.402;2024-02-16T04:26:43;50.17;;;31.93;;
781;SDS011;374;52.568;13.402;2024-02-16T04:29:08;51.23;;;30.13;;
781;SDS011;374;52.568;13.402;2024-02-16T04:31:34;47.33;;;30.43;;
781;SDS011;374;52.568;13.402;2024-02-16T04:33:59;45.13;;;29.50;;
781;SDS011;374;52.568;13.402;2024-02-16T04:36:25;47.30;;;29.73;;
781;SDS011;374;52.568;13.402;2024-02-16T04:38:50;50.17;;;30.03;;
781;SDS011;374;52.568;13.402;2024-02-16T04:41:16;41.60;;;28.90;;
781;SDS011;374;52.568;13.402;2024-02-16T04:43:44;40.70;;;28.83;;
781;SDS011;374;52.568;13.402;2024-02-16T04:46:13;40.97;;;29.30;;
781;SDS011;374;52.568;13.402;2024-02-16T04:48:42;37.80;;;28.30;;
781;SDS011;374;52.568;13.402;2024-02-16T04:51:08;40.53;;;27.43;;
781;SDS011;374;52.568;13.402;2024-02-16T04:53:36;45.07;;;28.43;;
781;SDS011;374;52.568;13.402;2024-02-16T04:56:02;36.83;;;27.10;;
781;SDS011;374;52.568;13.402;2024-02-16T04:58:28;41.97;;;27.70;;
781;SDS011;374;52.568;13.402;2024-02-16T05:00:53;37.20;;;27.00;;
781;SDS011;374;52.568;13.402;2024-02-16T05:03:19;37.00;;;26.63;;
781;SDS011;374;52.568;13.402;2024-02-16T05:05:44;35.77;;;26.93;;
781;SDS011;374;52.568;13.402;2024-02-16T05:08:10;42.13;;;27.37;;
781;SDS011;374;52.568;13.402;2024-02-16T05:10:36;43.90;;;27.10;;
781;SDS011;374;52.568;13.402;2024-02-16T05:13:01;35.63;;;26.30;;
781;SDS011;374;52.568;13.402;2024-02-16T05:15:27;38.83;;;28.20;;
781;SDS011;374;52.568;13.402;2024-02-16T05:17:55;40.30;;;26.10;;
781;SDS011;374;52.568;13.402;2024-02-16T05:20:20;40.77;;;27.60;;
781;SDS011;374;52.568;13.402;2024-02-16T05:22:46;40.20;;;28.40;;
781;SDS011;374;52.568;13.402;2024-02-16T05:25:12;37.50;;;26.37;;
781;SDS011;374;52.568;13.402;2024-02-16T05:27:38;38.00;;;24.97;;
781;SDS011;374;52.568;13.402;2024-02-16T05:30:04;36.03;;;26.13;;
781;SDS011;374;52.568;13.402;2024-02-16T05:32:33;36.00;;;26.20;;
781;SDS011;374;52.568;13.402;2024-02-16T05:35:03;37.17;;;26.23;;
781;SDS011;374;52.568;13.402;2024-02-16T05:37:36;37.43;;;24.20;;
781;SDS011;374;52.568;13.402;2024-02-16T05:40:02;46.33;;;24.50;;
781;SDS011;374;52.568;13.402;2024-02-16T05:42:45;33.53;;;22.43;;
781;SDS011;374;52.568;13.402;2024-02-16T05:45:11;34.90;;;23.30;;
781;SDS011;374;52.568;13.402;2024-02-16T05:47:36;36.00;;;24.30;;
781;SDS011;374;52.568;13.402;2024-02-16T05:50:03;34.80;;;23.30;;
781;SDS011;374;52.568;13.402;2024-02-16T05:52:29;41.50;;;24.53;;
781;SDS011;374;52.568;13.402;2024-02-16T05:54:55;30.10;;;22.97;;
781;SDS011;374;52.568;13.402;2024-02-16T05:57:21;29.50;;;22.40;;
781;SDS011;374;52.568;13.402;2024-02-16T05:59:46;38.47;;;23.17;;
781;SDS011;374;52.568;13.402;2024-02-16T06:02:12;37.23;;;22.47;;
781;SDS011;374;52.568;13.402;2024-02-16T06:04:38;30.83;;;22.90;;
781;SDS011;374;52.568;13.402;2024-02-16T06:07:04;32.83;;;22.17;;
781;SDS011;374;52.568;13.402;2024-02-16T06:09:33;29.80;;;22.67;;
781;SDS011;374;52.568;13.402;2024-02-16T06:12:00;32.13;;;22.10;;
781;SDS011;374;52.568;13.402;2024-02-16T06:14:28;29.73;;;22.90;;
781;SDS011;374;52.568;13.402;2024-02-16T06:16:55;28.50;;;21.10;;
781;SDS011;374;52.568;13.402;2024-02-16T06:19:44;33.17;;;22.47;;
781;SDS011;374;52.568;13.402;2024-02-16T06:22:10;32.63;;;22.10;;
781;SDS011;374;52.568;13.402;2024-02-16T06:24:35;33.87;;;22.93;;
781;SDS011;374;52.568;13.402;2024-02-16T06:27:01;30.87;;;20.80;;
781;SDS011;374;52.568;13.402;2024-02-16T06:29:28;27.20;;;21.27;;
781;SDS011;374;52.568;13.402;2024-02-16T06:31:55;33.77;;;22.00;;
781;SDS011;374;52.568;13.402;2024-02-16T06:34:20;35.37;;;21.03;;
781;SDS011;374;52.568;13.402;2024-02-16T06:36:46;34.10;;;21.60;;
781;SDS011;374;52.568;13.402;2024-02-16T06:39:12;29.50;;;22.17;;
781;SDS011;374;52.568;13.402;2024-02-16T06:41:41;37.07;;;22.10;;
781;SDS011;374;52.568;13.402;2024-02-16T06:44:13;29.50;;;20.43;;
781;SDS011;374;52.568;13.402;2024-02-16T06:46:39;29.57;;;21.40;;
781;SDS011;374;52.568;13.402;2024-02-16T06:49:07;29.93;;;21.07;;
781;SDS011;374;52.568;13.402;2024-02-16T06:51:33;31.10;;;23.17;;
781;SDS011;374;52.568;13.402;2024-02-16T06:53:59;30.63;;;19.97;;
781;SDS011;374;52.568;13.402;2024-02-16T06:56:24;30.00;;;22.77;;
781;SDS011;374;52.568;13.402;2024-02-16T06:58:50;28.93;;;21.07;;
781;SDS011;374;52.568;13.402;2024-02-16T07:01:16;37.93;;;23.57;;
781;SDS011;374;52.568;13.402;2024-02-16T07:03:46;36.20;;;22.57;;
781;SDS011;374;52.568;13.402;2024-02-16T07:06:16;33.40;;;22.60;;
781;SDS011;374;52.568;13.402;2024-02-16T07:08:42;31.00;;;22.70;;
781;SDS011;374;52.568;13.402;2024-02-16T07:11:08;27.37;;;21.00;;
781;SDS011;374;52.568;13.402;2024-02-16T07:13:38;28.50;;;21.00;;
781;SDS011;374;52.568;13.402;2024-02-16T07:16:04;32.93;;;25.17;;
781;SDS011;374;52.568;13.402;2024-02-16T07:18:31;29.07;;;21.57;;
781;SDS011;374;52.568;13.402;2024-02-16T07:20:58;29.50;;;21.30;;
781;SDS011;374;52.568;13.402;2024-02-16T07:23:26;28.10;;;21.90;;
781;SDS011;374;52.568;13.402;2024-02-16T07:25:52;30.63;;;24.63;;
781;SDS011;374;52.568;13.402;2024-02-16T07:28:21;32.30;;;23.40;;
781;SDS011;374;52.568;13.402;2024-02-16T07:30:50;33.90;;;23.47;;
781;SDS011;374;52.568;13.402;2024-02-16T07:33:16;35.80;;;21.30;;
781;SDS011;374;52.568;13.402;2024-02-16T07:35:41;29.67;;;22.03;;
781;SDS011;374;52.568;13.402;2024-02-16T07:38:07;37.23;;;23.40;;
781;SDS011;374;52.568;13.402;2024-02-16T07:40:32;34.47;;;22.20;;
781;SDS011;374;52.568;13.402;2024-02-16T07:42:58;35.17;;;23.23;;
781;SDS011;374;52.568;13.402;2024-02-16T07:45:24;28.27;;;22.07;;
781;SDS011;374;52.568;13.402;2024-02-16T07:47:50;33.40;;;22.77;;
781;SDS011;374;52.568;13.402;2024-02-16T07:50:19;33.67;;;22.53;;
781;SDS011;374;52.568;13.402;2024-02-16T07:52:46;31.53;;;24.10;;
781;SDS011;374;52.568;13.402;2024-02-16T07:55:11;32.67;;;22.10;;
781;SDS011;374;52.568;13.402;2024-02-16T07:57:37;35.53;;;23.10;;
781;SDS011;374;52.568;13.402;2024-02-16T08:00:03;34.50;;;22.47;;
781;SDS011;374;52.568;13.402;2024-02-16T08:02:38;26.40;;;20.87;;
781;SDS011;374;52.568;13.402;2024-02-16T08:05:08;29.80;;;20.87;;
781;SDS011;374;52.568;13.402;2024-02-16T08:07:35;32.23;;;22.00;;
781;SDS011;374;52.568;13.402;2024-02-16T08:10:00;29.80;;;21.33;;
781;SDS011;374;52.568;13.402;2024-02-16T08:12:26;32.10;;;22.43;;
781;SDS011;374;52.568;13.402;2024-02-16T08:14:53;32.50;;;22.47;;
781;SDS011;374;52.568;13.402;2024-02-16T08:17:18;30.47;;;22.23;;
781;SDS011;374;52.568;13.402;2024-02-16T08:19:50;25.77;;;21.70;;
781;SDS011;374;52.568;13.402;2024-02-16T08:22:17;31.00;;;21.17;;
781;SDS011;374;52.568;13.402;2024-02-16T08:24:46;30.30;;;21.13;;
781;SDS011;374;52.568;13.402;2024-02-16T08:27:11;30.00;;;20.90;;
781;SDS011;374;52.568;13.402;2024-02-16T08:29:40;32.20;;;22.13;;
781;SDS011;374;52.568;13.402;2024-02-16T08:32:06;31.00;;;21.93;;
781;SDS011;374;52.568;13.402;2024-02-16T08:34:33;26.30;;;19.77;;
781;SDS011;374;52.568;13.402;2024-02-16T08:37:02;31.93;;;21.83;;
781;SDS011;374;52.568;13.402;2024-02-16T08:39:28;29.50;;;20.70;;
781;SDS011;374;52.568;13.402;2024-02-16T08:41:54;27.63;;;20.93;;
781;SDS011;374;52.568;13.402;2024-02-16T08:44:20;30.77;;;18.53;;
781;SDS011;374;52.568;13.402;2024-02-16T08:46:46;36.03;;;20.90;;
781;SDS011;374;52.568;13.402;2024-02-16T08:49:13;25.87;;;19.70;;
781;SDS011;374;52.568;13.402;2024-02-16T08:51:39;29.30;;;19.20;;
781;SDS011;374;52.568;13.402;2024-02-16T08:54:04;26.43;;;19.13;;
781;SDS011;374;52.568;13.402;2024-02-16T08:56:30;31.27;;;21.00;;
781;SDS011;374;52.568;13.402;2024-02-16T08:58:56;25.37;;;18.67;;
781;SDS011;374;52.568;13.402;2024-02-16T09:01:34;24.23;;;20.47;;
781;SDS011;374;52.568;13.402;2024-02-16T09:04:01;30.60;;;19.30;;
781;SDS011;374;52.568;13.402;2024-02-16T09:06:27;24.13;;;18.47;;
781;SDS011;374;52.568;13.402;2024-02-16T09:08:53;35.37;;;19.80;;
781;SDS011;374;52.568;13.402;2024-02-16T09:11:19;25.90;;;18.07;;
781;SDS011;374;52.568;13.402;2024-02-16T09:13:45;24.23;;;18.67;;
781;SDS011;374;52.568;13.402;2024-02-16T09:16:11;25.20;;;18.87;;
781;SDS011;374;52.568;13.402;2024-02-16T09:18:36;25.73;;;18.17;;
781;SDS011;374;52.568;13.402;2024-02-16T09:21:02;23.03;;;18.20;;
781;SDS011;374;52.568;13.402;2024-02-16T09:23:28;26.50;;;19.80;;
781;SDS011;374;52.568;13.402;2024-02-16T09:25:54;25.67;;;17.73;;
781;SDS011;374;52.568;13.402;2024-02-16T09:28:20;26.40;;;18.07;;
781;SDS011;374;52.568;13.402;2024-02-16T09:30:46;27.50;;;17.70;;
781;SDS011;374;52.568;13.402;2024-02-16T09:33:12;25.90;;;18.50;;
781;SDS011;374;52.568;13.402;2024-02-16T09:35:38;23.50;;;18.77;;
781;SDS011;374;52.568;13.402;2024-02-16T09:38:04;21.60;;;18.20;;
781;SDS011;374;52.568;13.402;2024-02-16T09:40:30;19.97;;;16.53;;
781;SDS011;374;52.568;13.402;2024-02-16T09:42:56;26.80;;;18.00;;
781;SDS011;374;52.568;13.402;2024-02-16T09:45:27;25.47;;;17.37;;
781;SDS011;374;52.568;13.402;2024-02-16T09:47:54;24.20;;;16.53;;
781;SDS011;374;52.568;13.402;2024-02-16T09:50:20;23.60;;;16.80;;
781;SDS011;374;52.568;13.402;2024-02-16T09:52:47;25.80;;;16.40;;
781;SDS011;374;52.568;13.402;2024-02-16T09:55:16;21.57;;;16.17;;
781;SDS011;374;52.568;13.402;2024-02-16T09:57:45;24.67;;;16.50;;
781;SDS011;374;52.568;13.402;2024-02-16T10:00:10;19.00;;;15.53;;
781;SDS011;374;52.568;13.402;2024-02-16T10:02:40;20.13;;;14.10;;
781;SDS011;374;52.568;13.402;2024-02-16T10:05:21;21.40;;;14.47;;
781;SDS011;374;52.568;13.402;2024-02-16T10:07:47;17.03;;;13.00;;
781;SDS011;374;52.568;13.402;2024-02-16T10:10:22;15.80;;;13.17;;
781;SDS011;374;52.568;13.402;2024-02-16T10:13:05;17.50;;;12.80;;
781;SDS011;374;52.568;13.402;2024-02-16T10:15:33;15.47;;;11.27;;
781;SDS011;374;52.568;13.402;2024-02-16T10:18:02;14.20;;;12.37;;
781;SDS011;374;52.568;13.402;2024-02-16T10:20:29;13.20;;;11.27;;
781;SDS011;374;52.568;13.402;2024-02-16T10:23:08;14.33;;;10.60;;
781;SDS011;374;52.568;13.402;2024-02-16T10:25:35;14.17;;;10.47;;
781;SDS011;374;52.568;13.402;2024-02-16T10:28:05;12.10;;;10.00;;
781;SDS011;374;52.568;13.402;2024-02-16T10:30:34;14.00;;;12.37;;
781;SDS011;374;52.568;13.402;2024-02-16T10:33:02;14.50;;;12.00;;
781;SDS011;374;52.568;13.402;2024-02-16T10:35:29;14.70;;;10.57;;
781;SDS011;374;52.568;13.402;2024-02-16T10:37:55;11.60;;;10.30;;
781;SDS011;374;52.568;13.402;2024-02-16T10:40:30;17.00;;;11.13;;
781;SDS011;374;52.568;13.402;2024-02-16T10:43:03;23.10;;;10.63;;
781;SDS011;374;52.568;13.402;2024-02-16T10:45:31;17.47;;;11.27;;
781;SDS011;374;52.568;13.402;2024-02-16T10:48:02;14.43;;;10.50;;
781;SDS011;374;52.568;13.402;2024-02-16T10:50:29;14.60;;;10.87;;
781;SDS011;374;52.568;13.402;2024-02-16T10:52:59;11.07;;;9.83;;
781;SDS011;374;52.568;13.402;2024-02-16T10:55:29;10.67;;;9.03;;
781;SDS011;374;52.568;13.402;2024-02-16T10:57:57;11.20;;;10.00;;
781;SDS011;374;52.568;13.402;2024-02-16T11:00:25;14.40;;;10.20;;
781;SDS011;374;52.568;13.402;2024-02-16T11:02:54;12.17;;;10.07;;
781;SDS011;374;52.568;13.402;2024-02-16T11:05:34;13.17;;;10.60;;
781;SDS011;374;52.568;13.402;2024-02-16T11:08:02;10.93;;;9.57;;
781;SDS011;374;52.568;13.402;2024-02-16T11:10:32;12.90;;;10.50;;
781;SDS011;374;52.568;13.402;2024-02-16T11:13:04;11.50;;;10.17;;
781;SDS011;374;52.568;13.402;2024-02-16T11:15:30;15.90;;;11.10;;
781;SDS011;374;52.568;13.402;2024-02-16T11:18:01;14.03;;;11.10;;
781;SDS011;374;52.568;13.402;2024-02-16T11:20:27;11.83;;;10.53;;
781;SDS011;374;52.568;13.402;2024-02-16T11:22:53;13.67;;;12.17;;
781;SDS011;374;52.568;13.402;2024-02-16T11:25:30;14.70;;;11.70;;
781;SDS011;374;52.568;13.402;2024-02-16T11:27:57;15.60;;;12.90;;
781;SDS011;374;52.568;13.402;2024-02-16T11:30:23;14.00;;;11.90;;
781;SDS011;374;52.568;13.402;2024-02-16T11:32:49;12.80;;;11.40;;
781;SDS011;374;52.568;13.402;2024-02-16T11:35:16;12.67;;;10.97;;
781;SDS011;374;52.568;13.402;2024-02-16T11:37:44;16.13;;;11.80;;
781;SDS011;374;52.568;13.402;2024-02-16T11:40:12;14.00;;;12.00;;
781;SDS011;374;52.568;13.402;2024-02-16T11:42:37;15.60;;;11.70;;
781;SDS011;374;52.568;13.402;2024-02-16T11:45:03;13.93;;;11.10;;
781;SDS011;374;52.568;13.402;2024-02-16T11:47:29;14.53;;;11.53;;
781;SDS011;374;52.568;13.402;2024-02-16T11:50:05;13.00;;;11.70;;
781;SDS011;374;52.568;13.402;2024-02-16T11:52:35;14.80;;;12.40;;
781;SDS011;374;52.568;13.402;2024-02-16T11:55:07;17.77;;;11.63;;
781;SDS011;374;52.568;13.402;2024-02-16T11:57:34;12.20;;;10.97;;
781;SDS011;374;52.568;13.402;2024-02-16T12:00:03;13.47;;;11.00;;
781;SDS011;374;52.568;13.402;2024-02-16T12:02:34;12.80;;;10.63;;
781;SDS011;374;52.568;13.402;2024-02-16T12:05:03;12.50;;;10.10;;
781;SDS011;374;52.568;13.402;2024-02-16T12:07:29;13.83;;;9.97;;
781;SDS011;374;52.568;13.402;2024-02-16T12:10:02;14.70;;;10.20;;
781;SDS011;374;52.568;13.402;2024-02-16T12:12:31;12.37;;;9.53;;
781;SDS011;374;52.568;13.402;2024-02-16T12:14:56;13.53;;;10.17;;
781;SDS011;374;52.568;13.402;2024-02-16T12:17:23;10.40;;;9.20;;
781;SDS011;374;52.568;13.402;2024-02-16T12:19:49;11.37;;;9.03;;
781;SDS011;374;52.568;13.402;2024-02-16T12:22:16;10.80;;;8.30;;
781;SDS011;374;52.568;13.402;2024-02-16T12:24:46;9.70;;;8.67;;
781;SDS011;374;52.568;13.402;2024-02-16T12:27:13;12.30;;;9.17;;
781;SDS011;374;52.568;13.402;2024-02-16T12:29:39;10.33;;;8.60;;
781;SDS011;374;52.568;13.402;2024-02-16T12:32:08;10.70;;;8.37;;
781;SDS011;374;52.568;13.402;2024-02-16T12:34:34;9.90;;;8.70;;
781;SDS011;374;52.568;13.402;2024-02-16T12:37:03;11.03;;;8.00;;
781;SDS011;374;52.568;13.402;2024-02-16T12:39:33;10.87;;;8.67;;
781;SDS011;374;52.568;13.402;2024-02-16T12:41:59;8.43;;;7.50;;
781;SDS011;374;52.568;13.402;2024-02-16T12:44:24;9.80;;;7.77;;
781;SDS011;374;52.568;13.402;2024-02-16T12:46:50;9.20;;;7.30;;
781;SDS011;374;52.568;13.402;2024-02-16T12:49:15;8.83;;;7.80;;
781;SDS011;374;52.568;13.402;2024-02-16T12:51:41;15.73;;;7.80;;
781;SDS011;374;52.568;13.402;2024-02-16T12:54:07;10.33;;;7.90;;
781;SDS011;374;52.568;13.402;2024-02-16T12:56:33;8.43;;;7.43;;
781;SDS011;374;52.568;13.402;2024-02-16T12:58:58;11.97;;;8.13;;
781;SDS011;374;52.568;13.402;2024-02-16T13:01:26;8.60;;;6.60;;
781;SDS011;374;52.568;13.402;2024-02-16T13:03:52;7.20;;;6.50;;
781;SDS011;374;52.568;13.402;2024-02-16T13:06:18;7.80;;;6.20;;
781;SDS011;374;52.568;13.402;2024-02-16T13:08:43;9.93;;;6.50;;
781;SDS011;374;52.568;13.402;2024-02-16T13:11:08;6.30;;;5.80;;
781;SDS011;374;52.568;13.402;2024-02-16T13:13:34;9.20;;;6.37;;
781;SDS011;374;52.568;13.402;2024-02-16T13:16:00;8.70;;;6.53;;
781;SDS011;374;52.568;13.402;2024-02-16T13:18:25;7.40;;;6.20;;
781;SDS011;374;52.568;13.402;2024-02-16T13:20:51;7.77;;;5.77;;
781;SDS011;374;52.568;13.402;2024-02-16T13:23:16;7.23;;;5.60;;
781;SDS011;374;52.568;13.402;2024-02-16T13:25:42;8.67;;;5.60;;
781;SDS011;374;52.568;13.402;2024-02-16T13:28:07;7.03;;;5.53;;
781;SDS011;374;52.568;13.402;2024-02-16T13:30:33;7.17;;;5.60;;
781;SDS011;374;52.568;13.402;2024-02-16T13:32:59;5.00;;;4.60;;
781;SDS011;374;52.568;13.402;2024-02-16T13:35:24;4.87;;;4.40;;
781;SDS011;374;52.568;13.402;2024-02-16T13:37:51;5.80;;;4.60;;
781;SDS011;374;52.568;13.402;2024-02-16T13:40:16;5.30;;;4.80;;
781;SDS011;374;52.568;13.402;2024-02-16T13:42:42;6.60;;;4.70;;
781;SDS011;374;52.568;13.402;2024-02-16T13:45:10;8.50;;;6.10;;
781;SDS011;374;52.568;13.402;2024-02-16T13:47:36;5.53;;;4.63;;
781;SDS011;374;52.568;13.402;2024-02-16T13:50:04;7.27;;;5.43;;
781;SDS011;374;52.568;13.402;2024-02-16T13:52:31;5.63;;;4.90;;
781;SDS011;374;52.568;13.402;2024-02-16T13:54:56;8.23;;;6.03;;
781;SDS011;374;52.568;13.402;2024-02-16T13:57:24;6.13;;;5.53;;
781;SDS011;374;52.568;13.402;2024-02-16T13:59:50;6.40;;;5.70;;
781;SDS011;374;52.568;13.402;2024-02-16T14:02:15;6.20;;;5.30;;
781;SDS011;374;52.568;13.402;2024-02-16T14:04:41;5.37;;;4.83;;
781;SDS011;374;52.568;13.402;2024-02-16T14:07:06;5.87;;;4.83;;
781;SDS011;374;52.568;13.402;2024-02-16T14:09:32;6.23;;;5.17;;
781;SDS011;374;52.568;13.402;2024-02-16T14:11:57;5.50;;;4.67;;
781;SDS011;374;52.568;13.402;2024-02-16T14:14:27;6.33;;;4.87;;
781;SDS011;374;52.568;13.402;2024-02-16T14:16:52;5.00;;;4.60;;
781;SDS011;374;52.568;13.402;2024-02-16T14:19:19;5.57;;;4.40;;
781;SDS011;374;52.568;13.402;2024-02-16T14:21:44;5.23;;;4.83;;
781;SDS011;374;52.568;13.402;2024-02-16T14:24:12;4.73;;;4.33;;
781;SDS011;374;52.568;13.402;2024-02-16T14:26:38;6.20;;;4.87;;
781;SDS011;374;52.568;13.402;2024-02-16T14:29:07;5.00;;;4.60;;
781;SDS011;374;52.568;13.402;2024-02-16T14:31:32;6.60;;;4.73;;
781;SDS011;374;52.568;13.402;2024-02-16T14:33:58;7.80;;;4.60;;
781;SDS011;374;52.568;13.402;2024-02-16T14:36:24;5.20;;;4.53;;
781;SDS011;374;52.568;13.402;2024-02-16T14:38:50;7.90;;;5.30;;
781;SDS011;374;52.568;13.402;2024-02-16T14:41:15;10.63;;;9.50;;
781;SDS011;374;52.568;13.402;2024-02-16T14:43:41;9.83;;;5.63;;
781;SDS011;374;52.568;13.402;2024-02-16T14:46:07;8.47;;;5.73;;
781;SDS011;374;52.568;13.402;2024-02-16T14:48:41;6.30;;;5.70;;
781;SDS011;374;52.568;13.402;2024-02-16T14:51:07;8.57;;;6.60;;
781;SDS011;374;52.568;13.402;2024-02-16T14:53:32;6.90;;;6.10;;
781;SDS011;374;52.568;13.402;2024-02-16T14:55:58;6.23;;;5.63;;
781;SDS011;374;52.568;13.402;2024-02-16T14:58:24;6.53;;;5.53;;
781;SDS011;374;52.568;13.402;2024-02-16T15:00:50;12.17;;;6.07;;
781;SDS011;374;52.568;13.402;2024-02-16T15:03:16;8.27;;;5.30;;